Time;durP1;ratioP1;P1;durP2;ratioP2;P2;SDS_P1;SDS_P2;PMS_P1;PMS_P2;Temp;Humidity;BMP_temperature;BMP_pressure;BME280_temperature;BME280_humidity;BME280_pressure;Samples;Min_cycle;Max_cycle;Signal;HPM_P1;HPM_P2
2022/01/27 00:01:25;;;;;;;39.95;14.65;;;;;;;0.72;93.93;99914.09;8265784;28;20074;-71
2022/01/27 00:05:28;;;;;;;39.90;14.52;;;;;;;0.71;93.89;99911.66;8265610;28;20407;-71
2022/01/27 00:10:03;;;;;;;41.92;14.50;;;;;;;0.68;94.39;99906.81;8265127;28;20054;-71
2022/01/27 00:14:04;;;;;;;39.42;12.77;;;;;;;0.74;94.02;99900.59;8264738;28;20054;-71
2022/01/27 00:18:13;;;;;;;36.55;13.45;;;;;;;0.80;94.11;99894.34;8264587;28;20073;-71
2022/01/27 00:22:14;;;;;;;44.08;15.02;;;;;;;0.80;94.04;99894.34;8264663;28;20043;-71
2022/01/27 00:26:15;;;;;;;43.63;15.63;;;;;;;0.72;94.68;99887.53;8212466;28;20077;-70
2022/01/27 00:30:16;;;;;;;46.22;16.08;;;;;;;0.81;93.95;99869.38;8324496;28;20038;-71
2022/01/27 00:34:17;;;;;;;44.95;15.40;;;;;;;0.78;94.24;99880.50;8333537;28;20508;-71
2022/01/27 00:38:19;;;;;;;52.15;17.80;;;;;;;0.80;94.39;99878.41;8332370;28;20088;-70
2022/01/27 00:42:20;;;;;;;45.95;16.75;;;;;;;0.80;94.32;99873.09;8333582;28;20045;-71
2022/01/27 00:46:20;;;;;;;52.67;17.88;;;;;;;0.79;94.70;99887.44;8332939;28;20046;-71
2022/01/27 00:50:21;;;;;;;48.20;16.85;;;;;;;0.81;94.60;99872.06;8331593;28;20065;-72
2022/01/27 00:54:26;;;;;;;36.45;13.38;;;;;;;0.81;94.84;99874.72;8332946;28;20397;-71
2022/01/27 01:14:52;;;;;;;50.10;17.10;;;;;;;0.81;95.12;99848.13;8361552;28;20144;-72
2022/01/27 01:19:04;;;;;;;55.55;18.45;;;;;;;0.93;94.55;99851.63;8362231;28;20397;-71
2022/01/27 01:36:00;;;;;;;52.17;15.95;;;;;;;0.96;94.20;99845.84;8356434;28;20075;-71
2022/01/27 01:40:01;;;;;;;50.05;15.32;;;;;;;0.93;94.81;99841.00;8347680;28;20128;-71
2022/01/27 01:44:02;;;;;;;53.15;17.50;;;;;;;0.93;94.84;99841.00;8341665;28;20073;-71
2022/01/27 01:48:03;;;;;;;53.72;17.33;;;;;;;0.85;95.02;99838.66;8340482;28;20115;-72
2022/01/27 01:52:06;;;;;;;63.72;17.77;;;;;;;0.93;95.06;99841.00;8331164;28;20087;-71
2022/01/27 01:56:07;;;;;;;53.28;16.77;;;;;;;0.99;94.20;99840.09;8313502;28;20048;-71
2022/01/27 02:00:09;;;;;;;47.95;15.63;;;;;;;1.04;94.17;99832.22;8333620;28;20045;-71
2022/01/27 02:04:11;;;;;;;48.30;15.77;;;;;;;1.05;93.76;99839.19;8337385;28;20424;-71
2022/01/27 02:21:03;;;;;;;47.95;15.30;;;;;;;1.11;93.49;99827.59;8355814;28;20411;-71
2022/01/27 02:25:05;;;;;;;49.47;16.38;;;;;;;1.15;92.91;99818.13;8340755;28;20489;-71
2022/01/27 02:29:06;;;;;;;56.25;17.63;;;;;;;1.16;92.92;99809.09;8331909;28;20056;-71
2022/01/27 02:33:06;;;;;;;52.50;15.88;;;;;;;1.17;92.83;99821.34;8332231;28;20069;-70
2022/01/27 02:37:08;;;;;;;56.67;17.23;;;;;;;1.04;93.82;99812.78;8351692;28;20059;-71
2022/01/27 02:41:11;;;;;;;51.35;16.75;;;;;;;1.16;93.35;99803.75;8333527;28;20412;-70
2022/01/27 02:45:13;;;;;;;54.80;18.13;;;;;;;1.06;93.38;99792.88;8328480;28;20050;-70
2022/01/27 02:49:14;;;;;;;51.00;16.10;;;;;;;1.20;92.74;99796.97;8328937;28;20058;-70
2022/01/27 02:53:15;;;;;;;40.45;14.60;;;;;;;1.15;92.95;99786.22;8328738;28;20115;-70
2022/01/27 02:57:16;;;;;;;36.95;11.45;;;;;;;1.19;93.28;99792.69;8294742;28;20506;-71
2022/01/27 03:01:19;;;;;;;49.58;15.82;;;;;;;1.11;93.56;99795.66;8330247;28;20057;-71
2022/01/27 03:05:20;;;;;;;48.25;15.38;;;;;;;1.20;93.11;99794.31;8330062;28;20042;-72
2022/01/27 03:09:21;;;;;;;50.25;16.13;;;;;;;1.19;93.01;99803.31;8330068;28;20057;-72
2022/01/27 03:13:22;;;;;;;30.70;9.90;;;;;;;1.21;93.39;99795.94;8329947;28;20050;-71
2022/01/27 03:17:23;;;;;;;44.28;15.30;;;;;;;1.18;93.84;99790.25;8328570;28;20050;-71
2022/01/27 03:21:23;;;;;;;36.17;11.05;;;;;;;1.15;93.86;99780.88;8329992;28;20037;-71
2022/01/27 03:25:24;;;;;;;56.13;17.48;;;;;;;1.14;94.32;99768.63;8329900;28;20049;-72
2022/01/27 03:29:26;;;;;;;55.42;17.00;;;;;;;1.12;94.54;99759.25;8329031;28;20064;-71
2022/01/27 03:33:26;;;;;;;43.97;13.07;;;;;;;1.10;94.78;99762.16;8327723;28;20064;-72
2022/01/27 03:37:27;;;;;;;55.90;17.73;;;;;;;1.11;94.92;99753.09;8329311;28;20046;-72
2022/01/27 03:41:32;;;;;;;50.50;16.10;;;;;;;1.17;94.48;99752.19;8328308;28;20075;-72
2022/01/27 03:45:33;;;;;;;44.38;14.68;;;;;;;1.15;94.47;99730.34;8340039;28;20417;-71
2022/01/27 03:49:34;;;;;;;47.10;14.63;;;;;;;1.17;94.48;99725.59;8340899;28;20143;-72
2022/01/27 03:53:35;;;;;;;47.45;15.77;;;;;;;1.32;93.28;99721.66;8357276;28;20408;-71
2022/01/27 03:57:35;;;;;;;47.03;13.65;;;;;;;1.25;93.69;99727.91;8334617;28;20046;-71
2022/01/27 04:01:37;;;;;;;52.13;15.32;;;;;;;1.23;93.45;99724.66;8334675;28;20065;-71
2022/01/27 04:05:49;;;;;;;49.00;15.52;;;;;;;1.24;93.43;99710.31;8334872;28;20452;-71
2022/01/27 04:09:50;;;;;;;42.38;12.65;;;;;;;1.34;92.66;99724.88;8332365;28;20046;-70
2022/01/27 04:13:50;;;;;;;44.85;13.95;;;;;;;1.27;92.80;99725.81;8333967;28;20081;-71
2022/01/27 04:17:52;;;;;;;45.60;14.40;;;;;;;1.33;92.54;99715.25;8334444;28;20049;-72
2022/01/27 04:21:52;;;;;;;45.53;14.48;;;;;;;1.31;92.85;99725.34;8344092;28;20045;-72
2022/01/27 04:25:53;;;;;;;43.30;14.43;;;;;;;1.26;92.58;99713.56;8336294;28;20112;-71
2022/01/27 04:29:54;;;;;;;43.33;14.80;;;;;;;1.27;92.91;99693.88;8354590;28;20077;-71
2022/01/27 04:33:55;;;;;;;41.30;13.95;;;;;;;1.28;92.77;99695.50;8336705;28;20050;-71
2022/01/27 04:42:11;;;;;;;31.40;11.15;;;;;;;1.25;92.97;99685.34;8330243;28;20052;-71
2022/01/27 04:50:15;;;;;;;38.03;13.38;;;;;;;1.26;92.37;99676.31;8314867;28;20448;-70
2022/01/27 04:58:24;;;;;;;37.28;12.77;;;;;;;1.31;91.73;99666.81;8333550;28;20537;-71
2022/01/27 05:02:38;;;;;;;33.28;10.20;;;;;;;1.26;91.71;99665.69;8342816;28;20516;-70
2022/01/27 05:06:39;;;;;;;33.05;12.43;;;;;;;1.26;91.77;99668.34;8332878;28;20053;-70
2022/01/27 05:10:40;;;;;;;36.78;12.73;;;;;;;1.22;92.13;99664.50;8356523;28;20141;-71
2022/01/27 05:14:41;;;;;;;28.55;8.73;;;;;;;1.30;91.42;99659.88;8339633;28;20088;-71
2022/01/27 05:18:45;;;;;;;37.60;12.30;;;;;;;1.32;91.36;99652.47;8356307;28;20052;-71
2022/01/27 05:22:45;;;;;;;31.20;11.77;;;;;;;1.26;91.39;99649.72;8346932;28;20049;-71
2022/01/27 05:26:46;;;;;;;36.72;11.07;;;;;;;1.28;91.27;99634.28;8332252;28;20072;-70
2022/01/27 05:30:47;;;;;;;32.33;13.32;;;;;;;1.24;91.84;99641.13;8323903;28;20880;-71
2022/01/27 05:34:48;;;;;;;33.20;11.60;;;;;;;1.28;91.15;99636.97;8331696;28;20137;-72
2022/01/27 05:38:49;;;;;;;36.90;13.38;;;;;;;1.34;90.64;99623.75;8331480;28;20037;-71
2022/01/27 05:42:50;;;;;;;26.27;9.95;;;;;;;1.30;90.64;99627.94;8330879;28;20631;-71
2022/01/27 05:46:51;;;;;;;37.25;12.65;;;;;;;1.32;90.41;99625.88;8330378;28;20080;-71
2022/01/27 05:50:51;;;;;;;31.77;12.57;;;;;;;1.22;90.54;99615.81;8330749;28;20124;-70
2022/01/27 05:54:52;;;;;;;34.17;13.20;;;;;;;1.30;90.45;99617.28;8330481;28;20058;-71
2022/01/27 05:58:53;;;;;;;29.30;9.40;;;;;;;1.27;90.37;99618.56;8295633;28;20129;-72
2022/01/27 06:02:54;;;;;;;33.42;11.27;;;;;;;1.23;90.66;99623.56;8330367;28;20534;-72
2022/01/27 06:06:55;;;;;;;28.33;9.95;;;;;;;1.21;91.13;99620.34;8330406;28;20057;-73
2022/01/27 06:10:57;;;;;;;27.42;10.77;;;;;;;1.28;90.20;99621.00;8328461;28;20519;-71
2022/01/27 06:14:57;;;;;;;34.45;11.88;;;;;;;1.36;90.10;99616.34;8327662;28;20136;-71
2022/01/27 06:18:58;;;;;;;38.20;12.48;;;;;;;1.22;90.82;99610.47;8329857;28;20084;-72
2022/01/27 06:22:59;;;;;;;37.63;13.52;;;;;;;1.20;90.84;99618.72;8329885;28;20051;-72
2022/01/27 06:27:00;;;;;;;37.72;13.82;;;;;;;1.15;91.76;99609.81;8329829;28;20477;-71
2022/01/27 06:31:01;;;;;;;33.95;13.10;;;;;;;1.15;91.71;99589.34;8329974;28;20046;-72
2022/01/27 06:35:05;;;;;;;31.40;10.32;;;;;;;1.16;91.33;99612.22;8329917;28;20768;-72
2022/01/27 06:39:06;;;;;;;25.92;9.05;;;;;;;1.13;91.53;99602.06;8329382;28;20053;-72
2022/01/27 06:43:07;;;;;;;37.58;13.75;;;;;;;1.09;92.26;99616.06;8329635;28;20053;-71
2022/01/27 06:47:07;;;;;;;29.65;11.13;;;;;;;1.11;91.50;99614.00;8329416;28;20581;-71
2022/01/27 06:51:08;;;;;;;33.63;12.23;;;;;;;1.11;92.00;99603.38;8329341;28;20057;-71
2022/01/27 06:55:10;;;;;;;33.88;12.50;;;;;;;1.10;91.58;99607.88;8329310;28;20124;-71
2022/01/27 06:59:11;;;;;;;36.78;13.00;;;;;;;1.04;92.08;99608.00;8329163;28;20045;-71
2022/01/27 07:03:12;;;;;;;40.85;13.00;;;;;;;1.07;91.47;99605.66;8329107;28;20099;-71
2022/01/27 07:07:13;;;;;;;29.13;8.52;;;;;;;1.08;91.63;99599.31;8329005;28;20052;-72
2022/01/27 07:11:14;;;;;;;31.90;13.13;;;;;;;1.15;90.84;99591.19;8329008;28;20516;-71
2022/01/27 07:15:15;;;;;;;36.03;11.35;;;;;;;1.15;91.30;99578.72;8329116;28;20049;-72
2022/01/27 07:19:15;;;;;;;29.02;10.27;;;;;;;1.19;90.48;99569.22;8328897;28;20053;-71
2022/01/27 07:23:16;;;;;;;23.05;8.30;;;;;;;1.16;90.46;99564.34;8331874;28;20092;-71
2022/01/27 08:13:12;;;;;;;24.35;8.70;;;;;;;1.32;89.31;99519.44;8341580;27;1344808;-75
2022/01/27 08:17:16;;;;;;;26.17;8.63;;;;;;;1.31;89.55;99512.47;8419680;28;20123;-76
2022/01/27 08:21:17;;;;;;;34.40;11.02;;;;;;;1.35;89.91;99497.66;8406716;28;20098;-75
2022/01/27 08:25:22;;;;;;;104.55;27.17;;;;;;;1.41;88.43;99486.06;8421672;28;20075;-75
2022/01/27 08:29:30;;;;;;;14.15;6.38;;;;;;;1.37;88.02;99490.25;8361716;28;20143;-75
2022/01/27 08:33:32;;;;;;;29.50;9.27;;;;;;;1.34;87.83;99482.72;8417107;28;20051;-75
2022/01/27 08:37:33;;;;;;;23.50;8.98;;;;;;;1.34;87.13;99464.09;8418850;28;20060;-74
2022/01/27 08:41:34;;;;;;;28.75;8.88;;;;;;;1.33;86.67;99462.47;8414911;28;20059;-75
2022/01/27 08:45:38;;;;;;;29.23;10.75;;;;;;;1.31;86.55;99448.63;8407106;28;20515;-76
2022/01/27 08:49:42;;;;;;;32.67;9.50;;;;;;;1.39;86.44;99446.38;8415615;28;20403;-74
2022/01/27 08:53:43;;;;;;;29.77;10.18;;;;;;;1.44;86.10;99450.97;8413378;28;20058;-74
2022/01/27 08:57:44;;;;;;;20.05;8.18;;;;;;;1.43;85.29;99431.53;8417430;28;20139;-76
2022/01/27 09:01:45;;;;;;;20.15;6.85;;;;;;;1.46;84.87;99449.69;8411663;28;20048;-75
2022/01/27 09:05:46;;;;;;;20.85;6.65;;;;;;;1.57;83.74;99442.69;8415003;28;20060;-75
2022/01/27 09:09:47;;;;;;;31.30;11.10;;;;;;;1.55;84.35;99444.75;8414322;28;20528;-76
2022/01/27 09:14:00;;;;;;;30.15;10.73;;;;;;;1.58;84.27;99434.47;8383663;28;20041;-74
2022/01/27 09:18:04;;;;;;;30.08;10.77;;;;;;;1.56;84.04;99430.41;8362401;28;20090;-75
2022/01/27 09:22:11;;;;;;;24.67;9.73;;;;;;;1.60;84.24;99427.03;8345343;28;20049;-75
2022/01/27 09:26:38;;;;;;;32.42;11.18;;;;;;;1.72;83.60;99424.28;8395413;28;20114;-76
2022/01/27 09:30:35;;;;;;;28.25;10.82;;;;;;;1.67;83.89;99413.56;8387027;28;20059;-73
2022/01/27 09:34:36;;;;;;;32.17;12.25;;;;;;;1.70;83.47;99405.88;8294638;28;20092;-75
2022/01/27 09:38:38;;;;;;;30.77;12.30;;;;;;;1.72;83.29;99395.00;8283032;28;20598;-75
2022/01/27 09:42:42;;;;;;;34.55;11.77;;;;;;;1.75;83.69;99391.00;8281954;28;20066;-76
2022/01/27 09:46:45;;;;;;;30.50;12.43;;;;;;;1.76;83.45;99390.78;8265547;28;20567;-75
2022/01/27 09:51:21;;;;;;;33.72;11.13;;;;;;;1.78;83.50;99396.69;8295123;28;20054;-76
2022/01/27 09:55:22;;;;;;;35.30;12.32;;;;;;;1.72;83.33;99392.31;8224440;28;20050;-74
2022/01/27 09:59:24;;;;;;;30.65;12.15;;;;;;;1.66;84.01;99382.66;8298721;28;20070;-74
2022/01/27 10:03:28;;;;;;;28.58;10.52;;;;;;;1.76;82.99;99382.78;8314067;28;20114;-75
2022/01/27 10:07:40;;;;;;;32.97;11.43;;;;;;;1.79;83.06;99366.34;8395117;28;20573;-75
2022/01/27 10:11:42;;;;;;;33.03;12.50;;;;;;;1.78;83.08;99367.38;8384076;28;20053;-75
2022/01/27 10:15:46;;;;;;;41.22;16.10;;;;;;;1.83;83.28;99367.47;8375844;28;20053;-75
2022/01/27 10:19:54;;;;;;;29.92;11.40;;;;;;;1.86;83.00;99355.50;8332772;28;20099;-75
2022/01/27 10:24:25;;;;;;;28.67;8.97;;;;;;;1.90;82.77;99346.78;8386679;28;20048;-75
2022/01/27 10:28:36;;;;;;;33.22;12.27;;;;;;;1.93;82.66;99332.97;8383195;28;20051;-74
2022/01/27 10:32:38;;;;;;;21.33;8.73;;;;;;;1.94;82.81;99331.94;8337123;28;20051;-75
2022/01/27 10:36:41;;;;;;;30.55;11.63;;;;;;;1.93;83.48;99314.31;8389703;28;20063;-75
2022/01/27 10:40:48;;;;;;;28.88;10.70;;;;;;;1.95;83.07;99312.22;8381446;28;20053;-74
2022/01/27 10:44:56;;;;;;;30.35;12.27;;;;;;;1.90;83.58;99309.50;8343811;28;20191;-75
2022/01/27 10:49:05;;;;;;;36.35;11.85;;;;;;;1.89;83.75;99310.56;8384377;28;20036;-76
2022/01/27 10:53:07;;;;;;;31.75;12.00;;;;;;;1.86;85.25;99296.91;8371871;28;20059;-76
2022/01/27 10:57:12;;;;;;;31.13;10.98;;;;;;;1.67;87.71;99283.09;8343940;28;20037;-75
2022/01/27 11:01:28;;;;;;;39.22;12.68;;;;;;;1.46;88.99;99281.22;8384141;28;20123;-75
2022/01/27 11:05:31;;;;;;;35.63;13.02;;;;;;;1.41;90.52;99267.84;8384223;28;20052;-75
2022/01/27 11:09:34;;;;;;;36.67;13.52;;;;;;;1.33;90.66;99268.25;8367109;28;20391;-76
2022/01/27 11:13:36;;;;;;;35.38;12.98;;;;;;;1.40;91.16;99255.56;8331962;28;20044;-74
2022/01/27 11:17:39;;;;;;;39.30;13.90;;;;;;;1.43;91.66;99265.75;8387869;28;20140;-75
2022/01/27 11:21:43;;;;;;;40.38;12.48;;;;;;;1.36;92.19;99254.47;8383478;28;20048;-74
2022/01/27 11:25:52;;;;;;;40.13;13.85;;;;;;;1.32;92.45;99248.03;8370915;28;20422;-76
2022/01/27 11:30:06;;;;;;;37.92;13.05;;;;;;;1.30;92.41;99234.16;8291452;28;20042;-75
2022/01/27 11:34:10;;;;;;;56.15;18.17;;;;;;;1.21;93.40;99221.28;8289732;28;20042;-76
2022/01/27 11:38:12;;;;;;;46.17;15.23;;;;;;;1.11;93.84;99215.78;8291288;28;20052;-76
2022/01/27 11:42:39;;;;;;;51.22;16.45;;;;;;;1.06;94.39;99207.75;8290471;28;20046;-75
2022/01/27 11:46:40;;;;;;;50.75;16.90;;;;;;;0.95;94.99;99206.00;8193874;29;20052;-75
2022/01/27 11:51:12;;;;;;;55.05;16.88;;;;;;;1.01;95.23;99197.03;8161495;29;20494;-76
2022/01/27 11:55:25;;;;;;;41.80;16.02;;;;;;;1.05;95.46;99200.84;8194729;29;20057;-75
2022/01/27 11:59:37;;;;;;;39.83;12.50;;;;;;;1.06;95.56;99191.78;8156756;29;20055;-75
2022/01/27 12:03:39;;;;;;;39.45;14.32;;;;;;;1.05;95.96;99190.19;8193688;29;20483;-75
2022/01/27 12:08:09;;;;;;;49.90;18.25;;;;;;;1.12;96.16;99190.81;8244080;28;20089;-74
2022/01/27 12:12:27;;;;;;;56.55;18.08;;;;;;;1.03;96.47;99176.34;8256993;28;20174;-74
2022/01/27 12:20:50;;;;;;;52.05;18.50;;;;;;;0.97;97.19;99169.31;8239486;28;20065;-75
2022/01/27 12:25:03;;;;;;;56.95;17.73;;;;;;;0.98;97.59;99156.84;8383142;28;20132;-74
2022/01/27 12:29:04;;;;;;;55.10;17.90;;;;;;;1.01;98.01;99157.16;8347117;28;20053;-74
2022/01/27 12:33:05;;;;;;;51.83;17.83;;;;;;;1.00;97.88;99139.59;8394776;28;20418;-75
2022/01/27 12:37:11;;;;;;;57.33;17.52;;;;;;;0.96;98.13;99141.13;8394885;28;20503;-76
2022/01/27 12:41:12;;;;;;;57.40;18.13;;;;;;;0.95;98.27;99130.75;8394994;28;20048;-75
2022/01/27 12:45:14;;;;;;;56.20;19.70;;;;;;;0.91;98.46;99130.41;8342830;28;20411;-75
2022/01/27 12:49:37;;;;;;;62.03;20.92;;;;;;;0.92;98.79;99121.41;8399967;28;20048;-74
2022/01/27 12:53:39;;;;;;;61.10;20.48;;;;;;;0.86;99.07;99122.38;8399898;28;20126;-75
2022/01/27 12:57:41;;;;;;;57.60;20.30;;;;;;;0.96;99.07;99114.53;8383329;28;20058;-75
2022/01/27 13:01:41;;;;;;;55.28;18.23;;;;;;;1.00;98.60;99107.69;8348727;28;20060;-75
2022/01/27 13:05:45;;;;;;;58.03;19.48;;;;;;;0.90;99.38;99107.53;8400878;28;20109;-76
2022/01/27 13:10:08;;;;;;;61.00;18.88;;;;;;;0.96;99.73;99095.09;8400694;28;20129;-75
2022/01/27 13:14:10;;;;;;;48.63;18.55;;;;;;;1.00;99.97;99097.06;8400652;28;20052;-74
2022/01/27 13:18:22;;;;;;;56.25;22.00;;;;;;;0.97;99.86;99092.22;8400492;28;20059;-75
2022/01/27 13:22:30;;;;;;;56.85;20.67;;;;;;;1.03;99.70;99080.59;8367729;28;20466;-75
2022/01/27 13:26:31;;;;;;;61.10;21.42;;;;;;;1.09;99.95;99079.59;8382629;28;20075;-76
2022/01/27 13:30:35;;;;;;;57.15;18.52;;;;;;;1.14;99.58;99082.31;8399899;28;20484;-74
2022/01/27 13:34:56;;;;;;;48.45;19.55;;;;;;;1.14;99.89;99077.00;8366820;28;20045;-75
2022/01/27 13:39:10;;;;;;;48.67;18.90;;;;;;;1.24;99.15;99074.47;8200581;29;20055;-74
2022/01/27 13:43:12;;;;;;;49.10;18.35;;;;;;;1.24;98.63;99071.00;8182920;29;20583;-74
2022/01/27 13:47:13;;;;;;;54.40;20.63;;;;;;;1.22;98.68;99073.91;8200555;29;20130;-75
2022/01/27 13:51:22;;;;;;;48.28;20.42;;;;;;;1.25;98.57;99070.75;8200337;29;20039;-76
2022/01/27 13:55:24;;;;;;;46.58;17.95;;;;;;;1.26;99.09;99068.91;8200196;29;20533;-75
2022/01/27 13:59:29;;;;;;;45.63;16.45;;;;;;;1.30;98.97;99054.03;8199974;28;20101;-76
2022/01/27 14:03:44;;;;;;;261.25;51.42;;;;;;;1.41;98.81;99039.00;8199916;29;20066;-76
2022/01/27 14:07:47;;;;;;;66.93;19.63;;;;;;;1.45;98.85;99045.41;8167710;29;20055;-76
2022/01/27 14:12:00;;;;;;;113.80;31.27;;;;;;;1.50;98.48;99046.25;8199226;29;20511;-75
2022/01/27 14:16:01;;;;;;;50.88;17.92;;;;;;;1.58;98.25;99045.03;8313714;28;20522;-76
2022/01/27 14:20:12;;;;;;;42.03;16.02;;;;;;;1.53;98.84;99031.66;8365389;28;20098;-75
2022/01/27 14:24:20;;;;;;;47.45;17.23;;;;;;;1.57;99.09;99038.09;8365381;28;20488;-76
2022/01/27 14:28:22;;;;;;;57.30;22.65;;;;;;;1.62;99.63;99040.81;8313563;28;20049;-75
2022/01/27 14:32:22;;;;;;;108.07;27.40;;;;;;;1.69;99.56;99038.75;8379514;28;20049;-76
2022/01/27 14:36:24;;;;;;;150.90;38.40;;;;;;;1.66;99.65;99036.56;8397788;28;20080;-76
2022/01/27 14:40:25;;;;;;;49.05;17.85;;;;;;;1.71;99.79;99033.94;8397760;28;20044;-75
2022/01/27 14:44:27;;;;;;;47.30;17.20;;;;;;;1.67;99.97;99027.53;8397752;28;20052;-76
2022/01/27 14:48:30;;;;;;;68.93;19.27;;;;;;;1.73;99.79;99031.84;8397612;28;20094;-77
2022/01/27 14:52:31;;;;;;;41.08;15.18;;;;;;;1.78;99.56;99034.56;8397270;28;20127;-74
2022/01/27 14:56:33;;;;;;;43.70;16.35;;;;;;;1.77;99.67;99016.97;8397411;28;20628;-77
2022/01/27 15:00:35;;;;;;;54.10;19.27;;;;;;;1.73;99.88;99021.19;8345582;28;20057;-74
2022/01/27 15:04:36;;;;;;;43.55;17.45;;;;;;;1.83;100.00;99031.94;8396922;28;20127;-76
2022/01/27 15:08:39;;;;;;;31.63;12.63;;;;;;;1.87;99.37;99022.38;8396373;28;20061;-76
2022/01/27 15:12:40;;;;;;;52.05;19.08;;;;;;;1.79;100.00;99020.19;8396419;28;20103;-75
2022/01/27 15:21:01;;;;;;;44.05;16.85;;;;;;;1.94;99.81;99007.00;8396674;28;20157;-76
2022/01/27 15:25:03;;;;;;;39.50;14.48;;;;;;;1.95;100.00;99003.28;8396501;28;20061;-75
2022/01/27 15:29:05;;;;;;;49.88;15.43;;;;;;;2.07;99.44;99016.41;8396283;28;20057;-75
2022/01/27 15:33:08;;;;;;;46.10;17.38;;;;;;;2.04;99.51;99007.06;8396427;28;20044;-75
2022/01/27 15:37:10;;;;;;;28.45;12.43;;;;;;;2.05;99.58;99008.69;8396370;28;20048;-75
2022/01/27 15:41:11;;;;;;;37.42;17.27;;;;;;;2.02;99.96;99003.84;8396322;28;20384;-75
2022/01/27 15:45:14;;;;;;;37.88;13.45;;;;;;;2.06;99.82;98999.59;8396005;28;20045;-76
2022/01/27 15:49:15;;;;;;;33.10;14.07;;;;;;;2.13;99.17;98994.88;8394720;28;20057;-73
2022/01/27 15:53:16;;;;;;;26.42;9.63;;;;;;;2.22;98.52;98997.06;8358518;28;20079;-77
2022/01/27 15:57:21;;;;;;;22.20;9.25;;;;;;;2.16;98.84;98982.91;8369096;28;20063;-75
2022/01/27 16:01:22;;;;;;;132.32;37.65;;;;;;;2.19;98.85;98982.38;8351100;28;20056;-77
2022/01/27 16:05:23;;;;;;;84.78;45.80;;;;;;;2.12;99.28;98971.94;8395638;28;20056;-78
2022/01/27 16:09:24;;;;;;;29.70;13.15;;;;;;;2.23;98.56;98982.66;8291920;28;20527;-77
2022/01/27 16:13:26;;;;;;;29.02;12.45;;;;;;;2.24;98.81;98976.28;8270078;28;20100;-76
2022/01/27 16:17:27;;;;;;;33.85;15.40;;;;;;;2.20;99.12;98975.19;8291523;28;20050;-78
2022/01/27 16:21:29;;;;;;;85.25;33.63;;;;;;;2.24;99.13;98970.97;8292426;28;20133;-77
2022/01/27 16:25:30;;;;;;;32.78;13.30;;;;;;;2.35;98.49;98969.97;8287876;28;20376;-77
2022/01/27 16:29:31;;;;;;;34.13;14.23;;;;;;;2.46;97.97;98976.94;8298997;28;20146;-76
2022/01/27 16:33:33;;;;;;;23.73;10.02;;;;;;;2.39;98.17;98971.03;8265700;28;20056;-79
2022/01/27 16:37:34;;;;;;;39.95;17.98;;;;;;;2.44;97.89;98973.72;8297897;28;20046;-77
2022/01/27 16:41:35;;;;;;;30.00;13.55;;;;;;;2.49;97.77;98965.75;8390332;28;20500;-76
2022/01/27 16:45:36;;;;;;;34.75;15.25;;;;;;;2.54;97.18;98984.44;8370770;28;20053;-78
2022/01/27 16:49:38;;;;;;;29.35;11.30;;;;;;;2.58;97.30;98980.22;8371421;28;20055;-76
2022/01/27 16:53:39;;;;;;;37.65;15.60;;;;;;;2.50;98.10;98972.69;8316678;28;20114;-76
2022/01/27 16:57:40;;;;;;;29.30;12.95;;;;;;;2.58;97.46;98964.22;8327340;28;20122;-77
2022/01/27 17:01:41;;;;;;;61.25;31.02;;;;;;;2.55;97.83;98957.53;8388044;28;20048;-76
2022/01/27 17:05:42;;;;;;;36.00;14.68;;;;;;;2.58;97.79;98974.09;8374658;28;20052;-76
2022/01/27 17:09:44;;;;;;;30.50;12.25;;;;;;;2.59;98.05;98971.16;8400083;28;20123;-75
2022/01/27 17:13:45;;;;;;;38.00;16.40;;;;;;;2.59;98.52;98965.84;8399935;28;20052;-76
2022/01/27 17:17:48;;;;;;;51.88;23.92;;;;;;;2.61;98.32;98969.03;8361253;28;20045;-76
2022/01/27 17:21:49;;;;;;;33.35;15.18;;;;;;;2.63;98.63;98956.25;8354954;28;20513;-76
2022/01/27 17:25:50;;;;;;;40.63;17.88;;;;;;;2.57;99.23;98957.28;8380699;28;20070;-77
2022/01/27 17:29:52;;;;;;;41.42;17.95;;;;;;;2.62;99.71;98959.97;8324053;28;20051;-75
2022/01/27 17:33:53;;;;;;;26.10;11.85;;;;;;;2.75;99.11;98959.47;8394800;28;20450;-77
2022/01/27 17:37:54;;;;;;;36.28;16.25;;;;;;;2.72;99.07;98965.34;8399982;28;20048;-77
2022/01/27 17:42:02;;;;;;;46.83;21.42;;;;;;;2.76;99.21;98961.09;8325582;28;20041;-75
2022/01/27 17:46:03;;;;;;;35.67;16.23;;;;;;;2.74;99.54;98955.22;8370871;28;20056;-79
2022/01/27 17:50:06;;;;;;;50.33;22.70;;;;;;;2.86;98.59;98961.13;8356818;28;20384;-76
2022/01/27 17:54:07;;;;;;;37.65;16.10;;;;;;;2.89;98.55;98955.28;8385657;28;20041;-75
2022/01/27 17:58:09;;;;;;;41.92;19.95;;;;;;;2.89;99.01;98949.94;8374931;28;20427;-76
2022/01/27 18:02:10;;;;;;;29.55;14.73;;;;;;;2.92;99.13;98943.25;8350748;28;20110;-77
2022/01/27 18:06:11;;;;;;;36.15;16.25;;;;;;;2.95;99.28;98943.56;8320863;28;20135;-77
2022/01/27 18:10:13;;;;;;;30.13;12.82;;;;;;;2.98;98.84;98948.34;8374575;28;20065;-76
2022/01/27 18:14:14;;;;;;;34.88;11.25;;;;;;;3.00;98.47;98944.63;8396201;28;20132;-77
2022/01/27 18:18:15;;;;;;;24.75;9.75;;;;;;;3.03;98.04;98918.22;8373384;28;20041;-77
2022/01/27 18:22:17;;;;;;;35.90;17.63;;;;;;;3.08;97.58;98909.41;8374212;28;20052;-76
2022/01/27 18:26:18;;;;;;;30.42;12.38;;;;;;;3.12;96.84;98905.94;8377120;28;20045;-75
2022/01/27 18:30:20;;;;;;;37.17;14.27;;;;;;;3.12;97.27;98899.84;8375083;28;20504;-76
2022/01/27 18:34:21;;;;;;;32.13;12.73;;;;;;;3.14;96.85;98892.34;8386847;28;20051;-76
2022/01/27 18:38:23;;;;;;;36.97;14.25;;;;;;;3.07;97.72;98892.59;8334023;28;20045;-76
2022/01/27 18:42:24;;;;;;;29.65;13.55;;;;;;;3.16;96.94;98898.25;8387696;28;20405;-78
2022/01/27 18:46:26;;;;;;;28.92;12.30;;;;;;;3.21;96.47;98892.91;8396167;28;20052;-77
2022/01/27 18:50:28;;;;;;;33.17;14.30;;;;;;;3.14;97.08;98876.34;8301881;28;20069;-77
2022/01/27 18:54:30;;;;;;;31.60;12.85;;;;;;;3.22;96.54;98878.50;8265533;28;20052;-75
2022/01/27 18:58:32;;;;;;;31.95;14.93;;;;;;;3.27;95.94;98875.84;8364396;28;20094;-76
2022/01/27 19:02:33;;;;;;;32.10;12.90;;;;;;;3.24;95.95;98860.34;8359699;28;20114;-77
2022/01/27 19:06:34;;;;;;;32.72;13.70;;;;;;;3.27;96.00;98854.47;8345751;28;20048;-76
2022/01/27 19:10:36;;;;;;;26.40;12.05;;;;;;;3.39;94.92;98861.13;8389125;28;20076;-76
2022/01/27 19:14:38;;;;;;;29.05;12.27;;;;;;;3.34;95.58;98849.66;8336396;28;20049;-77
2022/01/27 19:18:40;;;;;;;26.05;11.13;;;;;;;3.35;95.29;98856.59;8373650;28;20529;-76
2022/01/27 19:22:41;;;;;;;31.52;12.82;;;;;;;3.40;95.12;98848.59;8384406;28;20048;-77
2022/01/27 19:26:48;;;;;;;28.17;11.52;;;;;;;3.36;95.46;98863.53;8375488;28;20064;-76
2022/01/27 19:30:52;;;;;;;26.60;12.77;;;;;;;3.39;95.20;98857.66;8381506;28;20084;-77
2022/01/27 19:34:55;;;;;;;28.42;11.52;;;;;;;3.38;95.66;98856.09;8390504;28;20428;-77
2022/01/27 19:39:02;;;;;;;22.45;10.10;;;;;;;3.33;96.00;98848.09;8321263;28;20040;-78
2022/01/27 19:43:04;;;;;;;24.77;11.77;;;;;;;3.42;95.57;98851.81;8339941;28;20068;-77
2022/01/27 19:47:06;;;;;;;21.30;10.07;;;;;;;3.51;95.29;98860.88;8364917;28;20056;-76
2022/01/27 19:51:17;;;;;;;23.27;11.00;;;;;;;3.43;95.73;98855.28;8340253;28;20373;-78
2022/01/27 19:55:22;;;;;;;20.65;7.90;;;;;;;3.43;95.15;98842.72;8326726;28;20060;-76
2022/01/27 19:59:24;;;;;;;23.83;11.18;;;;;;;3.47;95.39;98843.78;8388878;28;20466;-78
2022/01/27 20:03:25;;;;;;;28.80;12.15;;;;;;;3.56;94.02;98852.03;8332050;28;20053;-80
2022/01/27 20:07:27;;;;;;;27.95;10.68;;;;;;;3.56;93.75;98852.84;8375745;28;20069;-78
2022/01/27 20:11:28;;;;;;;24.95;10.45;;;;;;;3.57;93.38;98854.47;8389612;28;20058;-77
2022/01/27 20:15:33;;;;;;;31.70;10.25;;;;;;;3.62;93.09;98857.13;8377099;28;20063;-77
2022/01/27 20:19:36;;;;;;;19.63;7.20;;;;;;;3.64;92.73;98865.66;8383330;28;20052;-77
2022/01/27 20:23:38;;;;;;;18.10;8.07;;;;;;;3.69;91.79;98865.66;8288024;28;20048;-76
2022/01/27 20:27:44;;;;;;;25.77;10.40;;;;;;;3.68;91.81;98872.06;8337656;28;20132;-77
2022/01/27 20:31:45;;;;;;;23.92;9.07;;;;;;;3.75;91.37;98855.78;8381806;28;20575;-77
2022/01/27 20:35:47;;;;;;;26.63;9.13;;;;;;;3.75;91.26;98856.56;8380351;28;20045;-77
2022/01/27 20:40:10;;;;;;;16.77;6.55;;;;;;;3.81;90.45;98860.81;8362645;28;20526;-77
2022/01/27 20:44:11;;;;;;;20.83;7.60;;;;;;;3.86;90.35;98845.88;8283840;28;20129;-77